Time;durP1;ratioP1;P1;durP2;ratioP2;P2;SDS_P1;SDS_P2;PMS_P1;PMS_P2;Temp;Humidity;BMP_temperature;BMP_pressure;BME280_temperature;BME280_humidity;BME280_pressure;Samples;Min_cycle;Max_cycle;Signal;HPM_P1;HPM_P2
2022/04/21 00:06:11;;;;;;;3.58;3.05;;;;;;;;;;5679744;23;20208;31
2022/04/21 00:11:03;;;;;;;6.40;3.33;;;;;;;;;;5693182;23;77887;31
2022/04/21 00:13:30;;;;;;;5.88;2.95;;;;;;;;;;5677924;23;20218;31
2022/04/21 00:25:38;;;;;;;6.80;3.55;;;;;;;;;;5688252;23;20230;31
2022/04/21 00:40:13;;;;;;;6.80;4.10;;;;;;;;;;5665963;23;20200;31
2022/04/21 01:26:35;;;;;;;5.45;3.50;;;;;;;;;;5679232;23;20203;31
2022/04/21 01:31:24;;;;;;;6.85;3.20;;;;;;;;;;5683882;23;20199;31
2022/04/21 01:33:50;;;;;;;6.18;3.67;;;;;;;;;;5684167;23;20200;31
2022/04/21 01:48:27;;;;;;;4.78;3.10;;;;;;;;;;5674489;23;92503;31
2022/04/21 02:07:57;;;;;;;5.40;2.97;;;;;;;;;;5681593;23;71703;31
2022/04/21 02:22:32;;;;;;;5.32;3.03;;;;;;;;;;5688601;23;20223;31
2022/04/21 02:24:58;;;;;;;3.63;2.58;;;;;;;;;;5680665;23;20199;31
2022/04/21 02:37:09;;;;;;;3.80;2.55;;;;;;;;;;5676702;23;21559;31
2022/04/21 02:46:53;;;;;;;3.75;2.42;;;;;;;;;;5680177;23;71855;31
2022/04/21 03:29:17;;;;;;;4.32;2.95;;;;;;;;;;5677632;23;20206;-62
2022/04/21 03:51:35;;;;;;;5.28;2.33;;;;;;;;;;5590088;23;73964;31
2022/04/21 04:03:44;;;;;;;3.75;2.85;;;;;;;;;;5579005;23;73216;31
2022/04/21 04:11:01;;;;;;;2.63;2.20;;;;;;;;;;5626404;23;107005;31
2022/04/21 04:13:27;;;;;;;4.03;2.58;;;;;;;;;;5630540;23;20200;31
2022/04/21 05:07:00;;;;;;;3.40;2.70;;;;;;;;;;5616163;23;20201;31
2022/04/21 05:21:38;;;;;;;3.70;2.70;;;;;;;;;;5621974;23;71979;31
2022/04/21 05:24:04;;;;;;;2.92;2.42;;;;;;;;;;5628509;23;20201;31
2022/04/21 05:53:27;;;;;;;5.18;2.60;;;;;;;;;;5614526;23;71764;31
2022/04/21 06:13:02;;;;;;;4.13;2.50;;;;;;;;;;5616947;23;75084;31
2022/04/21 06:42:14;;;;;;;6.03;2.47;;;;;;;;;;5630075;23;20485;31
2022/04/21 06:54:26;;;;;;;4.15;2.53;;;;;;;;;;5617422;23;20245;31
2022/04/21 07:18:49;;;;;;;5.57;2.80;;;;;;;;;;5624024;23;71703;31
2022/04/21 07:45:34;;;;;;;5.32;2.97;;;;;;;;;;5634019;23;76639;31
2022/04/21 07:57:57;;;;;;;4.15;2.40;;;;;;;;;;5630845;23;81866;31
2022/04/21 08:00:23;;;;;;;7.57;2.75;;;;;;;;;;5625553;23;20221;31
2022/04/21 08:02:48;;;;;;;4.05;2.40;;;;;;;;;;5621619;23;20197;31
2022/04/21 08:10:55;;;;;;;6.90;2.50;;;;;;;;;;6205994;22;74911;31
2022/04/21 08:37:57;;;;;;;7.38;2.45;;;;;;;;;;6234248;22;20274;31
2022/04/21 08:42:52;;;;;;;3.65;2.13;;;;;;;;;;6216735;22;20181;31
2022/04/21 08:45:15;;;;;;;5.65;2.50;;;;;;;;;;6231217;22;20319;31
2022/04/21 08:47:43;;;;;;;4.03;2.40;;;;;;;;;;6233433;22;21568;31
2022/04/21 08:52:33;;;;;;;6.35;2.63;;;;;;;;;;6227740;22;21542;31
2022/04/21 08:57:25;;;;;;;3.85;2.25;;;;;;;;;;6213075;22;85671;31
2022/04/21 09:04:45;;;;;;;5.80;2.75;;;;;;;;;;6224033;22;20195;31
2022/04/21 09:08:48;;;;;;;3.90;2.65;;;;;;;;;;6250888;22;20509;31
2022/04/21 09:13:40;;;;;;;7.47;2.80;;;;;;;;;;6251038;22;20264;31
2022/04/21 09:25:51;;;;;;;3.58;2.10;;;;;;;;;;6203437;22;90461;31
2022/04/21 09:30:43;;;;;;;7.47;2.65;;;;;;;;;;6242687;22;20190;31
2022/04/21 09:42:55;;;;;;;4.68;2.50;;;;;;;;;;6257163;22;88026;31
2022/04/21 09:50:14;;;;;;;6.03;2.70;;;;;;;;;;6271789;22;88417;31
2022/04/21 10:22:00;;;;;;;4.85;2.97;;;;;;;;;;6262752;22;20197;31
2022/04/21 10:39:03;;;;;;;3.63;2.53;;;;;;;;;;6251275;22;20214;31
2022/04/21 10:48:47;;;;;;;5.28;2.75;;;;;;;;;;6218927;22;88762;-61
2022/04/21 10:58:30;;;;;;;3.92;2.20;;;;;;;;;;6246558;22;20218;31
2022/04/21 11:15:31;;;;;;;5.10;2.95;;;;;;;;;;6224320;22;20213;31
2022/04/21 11:20:22;;;;;;;5.40;2.95;;;;;;;;;;6230904;22;85652;31
2022/04/21 11:25:16;;;;;;;6.20;2.78;;;;;;;;;;6247966;22;20199;31
2022/04/21 11:27:43;;;;;;;6.40;2.90;;;;;;;;;;6218801;22;91847;31
2022/04/21 11:54:31;;;;;;;6.72;3.13;;;;;;;;;;6224382;22;20228;31
2022/04/21 12:06:52;;;;;;;;;;;;;;;;;;;;;
2022/04/21 12:11:34;;;;;;;8.13;3.83;;;;;;;;;;6241941;22;75585;31
2022/04/21 12:14:00;;;;;;;8.43;3.75;;;;;;;;;;6224393;22;20237;31
2022/04/21 12:26:09;;;;;;;8.68;4.10;;;;;;;;;;6219382;22;88527;31
2022/04/21 12:35:52;;;;;;;5.75;3.40;;;;;;;;;;6249410;22;20220;31
2022/04/21 12:45:38;;;;;;;4.97;3.50;;;;;;;;;;6230855;22;87207;31
2022/04/21 13:07:31;;;;;;;4.45;3.13;;;;;;;;;;6272923;22;20315;31
2022/04/21 13:36:43;;;;;;;6.85;3.20;;;;;;;;;;6266680;22;86044;31
2022/04/21 13:39:09;;;;;;;6.10;3.40;;;;;;;;;;6256423;22;20181;31
2022/04/21 13:58:38;;;;;;;7.30;3.58;;;;;;;;;;6256527;22;20219;31
2022/04/21 14:03:36;;;;;;;5.88;3.72;;;;;;;;;;6296699;22;20500;-60
2022/04/21 14:06:02;;;;;;;8.88;4.00;;;;;;;;;;6268346;22;90716;-61
2022/04/21 14:08:28;;;;;;;7.53;3.78;;;;;;;;;;6288506;22;20210;31
2022/04/21 14:10:53;;;;;;;6.78;4.28;;;;;;;;;;6303158;22;20204;-60
2022/04/21 14:13:19;;;;;;;8.02;4.40;;;;;;;;;;6298997;22;20187;-61
2022/04/21 14:15:46;;;;;;;7.97;4.18;;;;;;;;;;6304588;22;20192;-61
2022/04/21 14:18:12;;;;;;;6.35;4.00;;;;;;;;;;6302218;22;20202;-59
2022/04/21 15:04:27;;;;;;;6.32;3.58;;;;;;;;;;6238589;22;20194;31
2022/04/21 15:28:49;;;;;;;5.50;3.67;;;;;;;;;;6244331;22;21770;31
2022/04/21 16:10:17;;;;;;;4.05;2.00;;;;;;;;;;6256594;22;20288;31
2022/04/21 16:12:43;;;;;;;3.13;2.00;;;;;;;;;;6224004;22;86650;31
2022/04/21 16:17:38;;;;;;;4.75;2.22;;;;;;;;;;6249660;22;89338;-63
2022/04/21 16:20:04;;;;;;;4.30;2.10;;;;;;;;;;6255771;22;20194;31
2022/04/21 16:22:29;;;;;;;3.70;1.92;;;;;;;;;;6262463;22;20216;31
2022/04/21 16:29:50;;;;;;;4.38;1.90;;;;;;;;;;6249402;22;20213;31
2022/04/21 16:34:41;;;;;;;3.50;1.80;;;;;;;;;;6241951;22;20197;-64
2022/04/21 16:37:07;;;;;;;5.72;2.00;;;;;;;;;;6290603;22;20187;-61
2022/04/21 16:41:59;;;;;;;2.72;1.45;;;;;;;;;;6280591;22;20210;-61
2022/04/21 16:44:26;;;;;;;3.25;1.30;;;;;;;;;;6295627;22;20186;-61
2022/04/21 16:46:52;;;;;;;3.00;1.60;;;;;;;;;;6281024;22;20197;-63
2022/04/21 16:49:18;;;;;;;2.60;1.50;;;;;;;;;;6284833;22;20182;-61
2022/04/21 16:51:44;;;;;;;1.75;1.60;;;;;;;;;;6272659;22;20551;-62
2022/04/21 16:56:37;;;;;;;5.45;1.30;;;;;;;;;;6248032;22;92534;-62
2022/04/21 16:59:03;;;;;;;2.53;1.50;;;;;;;;;;6262219;22;20185;-61
2022/04/21 17:04:04;;;;;;;2.33;1.67;;;;;;;;;;6285184;22;20187;31
2022/04/21 17:06:31;;;;;;;3.58;1.70;;;;;;;;;;6278400;22;20176;-61
2022/04/21 17:08:57;;;;;;;2.05;1.50;;;;;;;;;;6308547;22;20142;-61
2022/04/21 17:11:23;;;;;;;2.35;1.50;;;;;;;;;;6307626;22;20200;-61
2022/04/21 17:13:50;;;;;;;1.67;1.50;;;;;;;;;;6307737;22;20188;-61
2022/04/21 17:16:16;;;;;;;2.63;1.40;;;;;;;;;;6308018;22;20247;-61
2022/04/21 17:18:42;;;;;;;2.00;1.50;;;;;;;;;;6307913;22;20146;-61
2022/04/21 17:21:08;;;;;;;2.80;1.60;;;;;;;;;;6307735;22;20142;-61
2022/04/21 17:23:34;;;;;;;3.03;1.50;;;;;;;;;;6308070;22;20146;-61
2022/04/21 17:26:00;;;;;;;1.58;1.23;;;;;;;;;;6307867;22;20145;-61
2022/04/21 17:28:26;;;;;;;3.72;1.65;;;;;;;;;;6305343;22;20189;-61
2022/04/21 17:30:52;;;;;;;2.70;1.48;;;;;;;;;;6307514;22;20593;-62
2022/04/21 17:33:19;;;;;;;3.70;1.40;;;;;;;;;;6309845;22;20142;-61
2022/04/21 17:35:45;;;;;;;5.40;1.80;;;;;;;;;;6310098;22;20177;-62
2022/04/21 17:38:11;;;;;;;4.43;1.58;;;;;;;;;;6309901;22;20138;-61
2022/04/21 17:40:37;;;;;;;2.05;1.42;;;;;;;;;;6310030;22;20145;-62
2022/04/21 17:43:03;;;;;;;2.35;1.67;;;;;;;;;;6309686;22;20209;-62
2022/04/21 17:45:29;;;;;;;3.97;1.73;;;;;;;;;;6309632;22;20136;-62
2022/04/21 17:48:00;;;;;;;2.00;1.70;;;;;;;;;;6309580;22;20461;-62
2022/04/21 17:50:30;;;;;;;1.60;1.30;;;;;;;;;;6309772;22;20538;-62
2022/04/21 17:52:56;;;;;;;2.08;1.55;;;;;;;;;;6309947;22;20541;-61
2022/04/21 17:55:22;;;;;;;2.78;1.80;;;;;;;;;;6309935;22;20221;-62
2022/04/21 17:57:47;;;;;;;1.65;1.55;;;;;;;;;;6310117;22;20405;-60
2022/04/21 18:00:14;;;;;;;2.83;1.67;;;;;;;;;;6310180;22;20553;-60
2022/04/21 18:02:40;;;;;;;5.72;2.58;;;;;;;;;;6310356;22;20170;-60
2022/04/21 18:05:06;;;;;;;2.88;1.67;;;;;;;;;;6309713;22;20138;-60
2022/04/21 18:07:32;;;;;;;3.30;1.92;;;;;;;;;;6309558;22;20573;-60
2022/04/21 18:09:58;;;;;;;3.08;1.50;;;;;;;;;;6309553;22;20142;-60
2022/04/21 18:12:24;;;;;;;2.03;1.52;;;;;;;;;;6309429;22;20612;-61
2022/04/21 18:14:51;;;;;;;4.38;2.08;;;;;;;;;;6309774;22;20147;-62
2022/04/21 18:17:17;;;;;;;3.47;1.75;;;;;;;;;;6311349;22;20157;-61
2022/04/21 18:19:46;;;;;;;1.88;1.50;;;;;;;;;;6311224;22;20217;-60
2022/04/21 18:22:12;;;;;;;4.13;1.67;;;;;;;;;;6311870;22;20142;-58
2022/04/21 18:24:38;;;;;;;3.83;1.50;;;;;;;;;;6311534;22;20638;-59
2022/04/21 18:27:04;;;;;;;3.40;1.40;;;;;;;;;;6311426;22;20249;-62
2022/04/21 18:29:30;;;;;;;1.65;1.10;;;;;;;;;;6311514;22;20550;-59
2022/04/21 18:31:56;;;;;;;3.03;1.10;;;;;;;;;;6311481;22;20139;-61
2022/04/21 18:34:22;;;;;;;3.55;1.50;;;;;;;;;;6311830;22;20180;-58
2022/04/21 18:36:48;;;;;;;1.40;1.20;;;;;;;;;;6311631;22;20150;-59
2022/04/21 18:39:14;;;;;;;2.03;1.10;;;;;;;;;;6310767;22;20139;-59
2022/04/21 18:41:40;;;;;;;2.38;1.20;;;;;;;;;;6311022;22;20557;-59
2022/04/21 18:44:06;;;;;;;2.35;1.20;;;;;;;;;;6311173;22;20495;-59
2022/04/21 18:46:32;;;;;;;2.15;1.33;;;;;;;;;;6311041;22;20144;-59
2022/04/21 18:48:59;;;;;;;1.95;1.10;;;;;;;;;;6311818;22;20436;-59
2022/04/21 18:51:26;;;;;;;2.85;1.02;;;;;;;;;;6311224;22;20222;-59
2022/04/21 18:53:52;;;;;;;2.67;1.27;;;;;;;;;;6311710;22;20484;-58
2022/04/21 18:56:18;;;;;;;1.55;1.17;;;;;;;;;;6311868;22;20230;-60
2022/04/21 18:58:44;;;;;;;1.73;1.10;;;;;;;;;;6311344;22;20139;-59
2022/04/21 19:01:10;;;;;;;1.52;1.20;;;;;;;;;;6311986;22;20150;-58
2022/04/21 19:03:37;;;;;;;3.58;1.30;;;;;;;;;;6310449;22;20151;-60
2022/04/21 19:06:03;;;;;;;1.77;1.50;;;;;;;;;;6311286;22;20150;-60
2022/04/21 19:11:15;;;;;;;1.95;1.30;;;;;;;;;;6311587;22;20138;-59
2022/04/21 19:13:41;;;;;;;1.60;1.20;;;;;;;;;;6311024;22;20158;-57
2022/04/21 19:16:07;;;;;;;1.63;1.50;;;;;;;;;;6313466;22;20174;-60
2022/04/21 19:18:33;;;;;;;1.77;1.20;;;;;;;;;;6316545;22;20139;-60
2022/04/21 19:21:03;;;;;;;2.80;1.45;;;;;;;;;;6310255;22;20143;-60
2022/04/21 19:23:30;;;;;;;2.67;1.40;;;;;;;;;;6310397;22;20143;-60
2022/04/21 19:25:56;;;;;;;3.65;1.83;;;;;;;;;;6310427;22;20150;-60
2022/04/21 19:28:23;;;;;;;2.60;1.65;;;;;;;;;;6310648;22;20582;-60
2022/04/21 19:30:50;;;;;;;2.90;1.60;;;;;;;;;;6310361;22;20151;-61
2022/04/21 19:33:20;;;;;;;3.47;1.80;;;;;;;;;;6310172;22;20139;-61
2022/04/21 19:35:46;;;;;;;3.00;2.00;;;;;;;;;;6310440;22;20173;-60
2022/04/21 19:38:12;;;;;;;1.52;1.42;;;;;;;;;;6310521;22;20554;-61
2022/04/21 19:40:38;;;;;;;2.08;1.70;;;;;;;;;;6310366;22;20542;-61
2022/04/21 19:43:03;;;;;;;4.78;2.13;;;;;;;;;;6310210;22;20560;-60
2022/04/21 19:45:32;;;;;;;3.45;1.98;;;;;;;;;;6309467;22;20479;-61
2022/04/21 19:47:58;;;;;;;4.80;2.20;;;;;;;;;;6308648;22;20336;-62
2022/04/21 19:50:53;;;;;;;3.40;1.98;;;;;;;;;;6308471;22;20170;-63
2022/04/21 19:53:19;;;;;;;3.28;1.90;;;;;;;;;;6308257;22;20137;-62
2022/04/21 19:55:45;;;;;;;5.03;2.30;;;;;;;;;;6308875;22;20214;-63
2022/04/21 19:58:11;;;;;;;3.53;2.33;;;;;;;;;;6308653;22;20165;-62
2022/04/21 20:00:37;;;;;;;3.28;2.33;;;;;;;;;;6309971;22;20538;-62
2022/04/21 20:03:04;;;;;;;5.57;2.30;;;;;;;;;;6309138;22;20214;-62
2022/04/21 20:10:59;;;;;;;5.72;3.13;;;;;;;;;;6308971;22;20184;-62
2022/04/21 20:13:25;;;;;;;3.97;2.65;;;;;;;;;;6309157;22;20218;-62
2022/04/21 20:15:51;;;;;;;5.80;2.47;;;;;;;;;;6309350;22;20135;-62
2022/04/21 20:18:17;;;;;;;8.45;2.90;;;;;;;;;;6309110;22;20143;-62
2022/04/21 20:23:27;;;;;;;5.18;2.80;;;;;;;;;;6308428;22;20244;-63
2022/04/21 20:28:39;;;;;;;3.92;2.75;;;;;;;;;;6308229;22;20632;-64
2022/04/21 20:31:05;;;;;;;6.05;3.00;;;;;;;;;;6308276;22;20139;-63
2022/04/21 20:33:31;;;;;;;3.85;2.67;;;;;;;;;;6308657;22;20575;-63
2022/04/21 20:35:57;;;;;;;4.32;2.30;;;;;;;;;;6308660;22;20547;-63
2022/04/21 20:38:23;;;;;;;3.38;2.47;;;;;;;;;;6308320;22;20448;-63
2022/04/21 20:40:48;;;;;;;3.03;2.58;;;;;;;;;;6308282;22;20143;-63
2022/04/21 20:43:14;;;;;;;4.40;2.70;;;;;;;;;;6308152;22;20143;-63
2022/04/21 20:45:40;;;;;;;4.07;2.50;;;;;;;;;;6308382;22;20143;-63
2022/04/21 20:48:08;;;;;;;3.97;2.50;;;;;;;;;;6308335;22;20166;-63
2022/04/21 20:50:35;;;;;;;5.03;2.95;;;;;;;;;;6308953;22;20180;-63
2022/04/21 20:53:01;;;;;;;4.00;2.40;;;;;;;;;;6308732;22;20139;-63
2022/04/21 20:55:27;;;;;;;4.30;2.63;;;;;;;;;;6308526;22;20157;-63
2022/04/21 20:57:53;;;;;;;3.42;2.53;;;;;;;;;;6308517;22;20150;-63
2022/04/21 21:00:19;;;;;;;4.57;2.40;;;;;;;;;;6308243;22;20139;-62
2022/04/21 21:02:47;;;;;;;4.82;2.67;;;;;;;;;;6308254;22;20200;-63
2022/04/21 21:05:13;;;;;;;5.85;2.80;;;;;;;;;;6308283;22;20151;-63
2022/04/21 21:07:42;;;;;;;3.10;2.20;;;;;;;;;;6308160;22;20529;-62
2022/04/21 21:10:08;;;;;;;5.03;2.63;;;;;;;;;;6308526;22;20192;-63
2022/04/21 21:12:34;;;;;;;4.18;2.42;;;;;;;;;;6308061;22;20558;-62
2022/04/21 21:15:00;;;;;;;3.08;2.22;;;;;;;;;;6308017;22;20211;-63
2022/04/21 21:17:26;;;;;;;4.68;2.40;;;;;;;;;;6308120;22;20585;-62
2022/04/21 21:19:53;;;;;;;4.35;2.30;;;;;;;;;;6307945;22;20173;-63
2022/04/21 21:22:19;;;;;;;3.15;2.10;;;;;;;;;;6308006;22;20621;-62
2022/04/21 21:24:46;;;;;;;5.45;3.00;;;;;;;;;;6307826;22;20203;-63
2022/04/21 21:27:12;;;;;;;4.53;2.47;;;;;;;;;;6308021;22;20163;-63
2022/04/21 21:29:38;;;;;;;3.45;2.72;;;;;;;;;;6307875;22;20157;-63
2022/04/21 21:32:04;;;;;;;7.40;3.03;;;;;;;;;;6307998;22;20211;-63
2022/04/21 21:34:30;;;;;;;4.35;2.53;;;;;;;;;;6307893;22;20135;-63
2022/04/21 21:36:56;;;;;;;4.97;3.17;;;;;;;;;;6307878;22;20203;-63
2022/04/21 21:39:22;;;;;;;4.78;2.53;;;;;;;;;;6307759;22;20511;-63
2022/04/21 21:41:48;;;;;;;4.25;2.70;;;;;;;;;;6307956;22;20210;-63
2022/04/21 21:44:14;;;;;;;6.30;2.63;;;;;;;;;;6307743;22;20143;-63
2022/04/21 21:46:40;;;;;;;4.30;2.80;;;;;;;;;;6308042;22;20167;-61
2022/04/21 21:54:35;;;;;;;5.07;2.67;;;;;;;;;;6307983;22;20561;-63
2022/04/21 21:57:01;;;;;;;4.20;2.83;;;;;;;;;;6307884;22;20167;-62
2022/04/21 21:59:27;;;;;;;4.15;2.53;;;;;;;;;;6308114;22;20200;-63
2022/04/21 22:01:53;;;;;;;4.72;2.88;;;;;;;;;;6308357;22;20147;-63
2022/04/21 22:04:19;;;;;;;5.18;2.90;;;;;;;;;;6308098;22;20776;-63
2022/04/21 22:06:46;;;;;;;6.63;2.70;;;;;;;;;;6307922;22;20139;-61
2022/04/21 22:09:12;;;;;;;4.50;2.80;;;;;;;;;;6308098;22;20143;-62
2022/04/21 22:11:38;;;;;;;4.28;2.47;;;;;;;;;;6307738;22;20195;-63
2022/04/21 22:14:06;;;;;;;3.72;2.60;;;;;;;;;;6308011;22;20166;-63
2022/04/21 22:16:33;;;;;;;7.03;2.90;;;;;;;;;;6310059;22;20212;-63
2022/04/21 22:18:59;;;;;;;5.63;3.15;;;;;;;;;;6309415;22;20667;-64
2022/04/21 22:21:25;;;;;;;3.03;2.53;;;;;;;;;;6309637;22;20145;-63
2022/04/21 22:23:51;;;;;;;3.90;2.90;;;;;;;;;;6310008;22;20229;-63
2022/04/21 22:26:17;;;;;;;5.05;3.00;;;;;;;;;;6310118;22;20146;-62
2022/04/21 22:28:45;;;;;;;5.78;3.08;;;;;;;;;;6309970;22;20252;-62
2022/04/21 22:31:11;;;;;;;4.15;2.80;;;;;;;;;;6282956;22;20139;-62
2022/04/21 22:33:37;;;;;;;3.72;2.80;;;;;;;;;;6310090;22;20143;-63
2022/04/21 22:36:04;;;;;;;6.50;3.40;;;;;;;;;;6310312;22;20191;-63
2022/04/21 22:38:30;;;;;;;6.07;3.00;;;;;;;;;;6309682;22;20154;-61
2022/04/21 22:40:56;;;;;;;6.00;3.15;;;;;;;;;;6309472;22;20321;-62
2022/04/21 22:43:23;;;;;;;7.47;3.35;;;;;;;;;;6309672;22;20223;-63
2022/04/21 22:45:50;;;;;;;8.10;3.35;;;;;;;;;;6309635;22;20568;-63
2022/04/21 22:48:17;;;;;;;3.55;2.85;;;;;;;;;;6309344;22;20173;-63
2022/04/21 22:50:43;;;;;;;7.72;3.47;;;;;;;;;;6309308;22;20170;-63
2022/04/21 22:53:09;;;;;;;5.78;3.08;;;;;;;;;;6309537;22;20135;-63
2022/04/21 22:55:35;;;;;;;7.72;3.00;;;;;;;;;;6309530;22;20174;-63
2022/04/21 22:58:01;;;;;;;5.78;2.95;;;;;;;;;;6309352;22;20207;-63
2022/04/21 23:00:26;;;;;;;7.78;2.95;;;;;;;;;;6309008;22;20238;-63
2022/04/21 23:02:53;;;;;;;8.80;2.65;;;;;;;;;;6309213;22;20157;-62
2022/04/21 23:05:19;;;;;;;4.63;2.83;;;;;;;;;;6309164;22;20192;-63
2022/04/21 23:07:45;;;;;;;4.93;2.97;;;;;;;;;;6309437;22;20167;-62
2022/04/21 23:15:40;;;;;;;5.40;3.20;;;;;;;;;;6309061;22;20138;-62
2022/04/21 23:18:07;;;;;;;3.80;2.70;;;;;;;;;;6309394;22;20139;-62
2022/04/21 23:20:34;;;;;;;5.22;2.80;;;;;;;;;;6308687;22;20203;-62
2022/04/21 23:23:00;;;;;;;6.93;3.45;;;;;;;;;;6308969;22;20564;-62
2022/04/21 23:25:26;;;;;;;8.50;3.22;;;;;;;;;;6309198;22;20170;-61
2022/04/21 23:27:52;;;;;;;6.32;2.80;;;;;;;;;;6308851;22;20177;-63
2022/04/21 23:30:18;;;;;;;4.68;2.85;;;;;;;;;;6308790;22;20208;-62
2022/04/21 23:32:44;;;;;;;6.22;3.05;;;;;;;;;;6309228;22;20143;-62
2022/04/21 23:35:10;;;;;;;8.27;3.13;;;;;;;;;;6308700;22;20475;-62
2022/04/21 23:40:20;;;;;;;5.70;3.28;;;;;;;;;;6308763;22;20141;-62
2022/04/21 23:42:47;;;;;;;6.70;2.90;;;;;;;;;;6308785;22;20139;-62
2022/04/21 23:45:16;;;;;;;5.05;3.05;;;;;;;;;;6308999;22;20153;-62
2022/04/21 23:47:42;;;;;;;5.22;2.88;;;;;;;;;;6309657;22;20171;-62
2022/04/21 23:50:08;;;;;;;7.03;3.00;;;;;;;;;;6309444;22;20447;-63
2022/04/21 23:52:35;;;;;;;3.90;2.63;;;;;;;;;;6309323;22;20561;-62
2022/04/21 23:55:01;;;;;;;4.82;2.80;;;;;;;;;;6308566;22;20134;-62
2022/04/21 23:57:27;;;;;;;5.43;3.30;;;;;;;;;;6309187;22;20149;-63
2022/04/21 23:59:53;;;;;;;6.15;2.75;;;;;;;;;;6308510;22;20466;-63
